createdAt,value
2023-04-16T00:00:16.311Z,11.50
2023-04-16T00:02:45.666Z,9.00
2023-04-16T00:05:17.626Z,9.48
2023-04-16T00:07:47.605Z,14.23
2023-04-16T00:10:18.450Z,12.43
2023-04-16T00:12:49.600Z,11.63
2023-04-16T00:15:18.571Z,20.77
2023-04-16T00:17:47.791Z,9.68
2023-04-16T00:20:20.630Z,10.38
2023-04-16T00:22:49.581Z,11.25
2023-04-16T00:25:18.376Z,11.02
2023-04-16T00:27:47.503Z,10.18
2023-04-16T00:30:16.840Z,8.80
2023-04-16T00:32:46.351Z,16.10
2023-04-16T00:35:15.494Z,14.73
2023-04-16T00:37:46.139Z,8.38
2023-04-16T00:40:16.551Z,16.38
2023-04-16T00:42:49.886Z,13.15
2023-04-16T00:45:19.247Z,11.32
2023-04-16T00:47:48.214Z,13.88
2023-04-16T00:50:18.669Z,11.75
2023-04-16T00:52:52.370Z,7.82
2023-04-16T00:55:23.035Z,14.35
2023-04-16T00:58:03.276Z,8.27
2023-04-16T01:00:37.175Z,13.00
2023-04-16T01:03:08.650Z,11.15
2023-04-16T01:05:37.832Z,12.85
2023-04-16T01:08:09.303Z,13.25
2023-04-16T01:10:39.179Z,13.48
2023-04-16T01:13:09.817Z,14.23
2023-04-16T01:15:38.977Z,10.43
2023-04-16T01:18:17.559Z,11.82
2023-04-16T01:20:48.782Z,19.23
2023-04-16T01:23:19.916Z,13.55
2023-04-16T01:25:53.013Z,12.98
2023-04-16T01:28:23.058Z,16.30
2023-04-16T01:30:53.056Z,21.27
2023-04-16T01:33:23.795Z,21.95
2023-04-16T01:35:55.923Z,16.23
2023-04-16T01:38:25.957Z,22.83
2023-04-16T01:40:59.587Z,20.65
2023-04-16T01:43:32.932Z,16.60
2023-04-16T01:46:19.086Z,16.58
2023-04-16T01:48:56.409Z,16.60
2023-04-16T01:51:33.641Z,20.10
2023-04-16T01:54:07.022Z,24.42
2023-04-16T01:56:37.061Z,29.33
2023-04-16T01:59:07.517Z,22.83
2023-04-16T02:01:42.921Z,25.83
2023-04-16T02:04:16.958Z,26.40
2023-04-16T02:06:52.952Z,24.98
2023-04-16T02:09:51.022Z,27.23
2023-04-16T02:12:23.024Z,24.48
2023-04-16T02:14:57.746Z,25.15
2023-04-16T02:17:28.602Z,30.02
2023-04-16T02:20:15.766Z,28.58
2023-04-16T02:22:46.868Z,34.33
2023-04-16T02:25:15.978Z,26.90
2023-04-16T02:27:52.977Z,27.88
2023-04-16T02:30:25.576Z,29.70
2023-04-16T02:32:57.317Z,34.05
2023-04-16T02:35:27.624Z,32.67
2023-04-16T02:37:59.371Z,30.27
2023-04-16T02:40:30.076Z,29.67
2023-04-16T02:43:00.968Z,25.60
2023-04-16T02:45:32.172Z,27.13
2023-04-16T02:48:17.730Z,28.80
2023-04-16T02:50:53.026Z,31.33
2023-04-16T02:53:45.624Z,25.55
2023-04-16T02:56:28.742Z,27.23
2023-04-16T02:59:07.953Z,31.20
2023-04-16T03:01:58.727Z,28.48
2023-04-16T03:04:28.961Z,35.33
2023-04-16T03:06:58.127Z,41.22
2023-04-16T03:09:29.212Z,30.92
2023-04-16T03:12:00.220Z,31.73
2023-04-16T03:14:31.090Z,30.30
2023-04-16T03:17:02.747Z,29.80
2023-04-16T03:19:34.951Z,31.23
2023-04-16T03:22:03.995Z,38.20
2023-04-16T03:24:37.269Z,32.25
2023-04-16T03:27:08.354Z,37.95
2023-04-16T03:29:42.006Z,35.22
2023-04-16T03:32:12.979Z,32.60
2023-04-16T03:34:42.077Z,28.17
2023-04-16T03:37:13.479Z,27.65
2023-04-16T03:39:44.756Z,35.67
2023-04-16T03:42:14.777Z,33.88
2023-04-16T03:44:43.532Z,30.50
2023-04-16T03:47:15.031Z,29.73
2023-04-16T03:49:44.151Z,33.90
2023-04-16T03:52:13.313Z,33.95
2023-04-16T03:54:43.029Z,26.60
2023-04-16T03:57:11.665Z,33.85
2023-04-16T03:59:40.553Z,25.23
2023-04-16T04:02:09.969Z,26.02
2023-04-16T04:04:39.158Z,31.88
2023-04-16T04:07:07.915Z,29.00
2023-04-16T04:09:37.283Z,31.15
2023-04-16T04:12:08.088Z,36.72
2023-04-16T04:14:39.927Z,29.67
2023-04-16T04:17:11.807Z,28.73
2023-04-16T04:19:47.160Z,28.92
2023-04-16T04:22:24.566Z,24.98
2023-04-16T04:24:57.025Z,27.20
2023-04-16T04:27:28.646Z,27.75
2023-04-16T04:29:57.956Z,30.17
2023-04-16T04:32:29.274Z,33.00
2023-04-16T04:34:59.168Z,37.78
2023-04-16T04:37:29.961Z,31.85
2023-04-16T04:39:58.875Z,35.13
2023-04-16T04:42:28.904Z,44.75
2023-04-16T04:44:57.748Z,38.90
2023-04-16T04:47:28.382Z,36.90
2023-04-16T04:49:59.860Z,32.97
2023-04-16T04:52:29.316Z,36.40
2023-04-16T04:55:02.058Z,28.17
2023-04-16T04:57:35.869Z,33.47
2023-04-16T05:00:07.394Z,28.52
2023-04-16T05:02:36.465Z,37.33
2023-04-16T05:05:15.588Z,36.08
2023-04-16T05:07:45.745Z,43.83
2023-04-16T05:10:20.308Z,41.85
2023-04-16T05:12:57.571Z,37.22
2023-04-16T05:15:28.043Z,39.00
2023-04-16T05:17:58.036Z,35.45
2023-04-16T05:20:31.199Z,33.72
2023-04-16T05:23:08.056Z,35.97
2023-04-16T05:25:37.415Z,39.78
2023-04-16T05:28:08.387Z,49.15
2023-04-16T05:30:37.502Z,33.03
2023-04-16T05:33:10.144Z,39.15
2023-04-16T05:35:40.677Z,34.75
2023-04-16T05:38:10.508Z,35.72
2023-04-16T05:40:40.215Z,34.22
2023-04-16T05:43:10.528Z,35.00
2023-04-16T05:45:44.021Z,35.97
2023-04-16T05:48:14.469Z,38.22
2023-04-16T05:50:43.142Z,32.60
2023-04-16T05:53:15.386Z,32.90
2023-04-16T05:55:48.418Z,34.42
2023-04-16T05:58:22.233Z,27.90
2023-04-16T06:00:51.827Z,33.17
2023-04-16T06:03:20.640Z,33.42
2023-04-16T06:05:59.109Z,34.10
2023-04-16T06:08:28.273Z,40.05
2023-04-16T06:10:58.464Z,30.45
2023-04-16T06:13:29.493Z,35.47
2023-04-16T06:16:00.119Z,39.38
2023-04-16T06:18:31.578Z,37.28
2023-04-16T06:21:05.278Z,36.25
2023-04-16T06:23:34.756Z,41.45
2023-04-16T06:26:06.272Z,38.38
2023-04-16T06:28:37.322Z,34.47
2023-04-16T06:31:09.115Z,30.23
2023-04-16T06:33:41.872Z,25.15
2023-04-16T06:36:11.524Z,31.33
2023-04-16T06:38:41.704Z,25.70
2023-04-16T06:41:10.454Z,30.25
2023-04-16T06:43:42.838Z,29.48
2023-04-16T06:46:13.852Z,27.42
2023-04-16T06:49:02.055Z,28.88
2023-04-16T06:51:34.402Z,27.88
2023-04-16T06:54:03.623Z,23.27
2023-04-16T06:56:32.896Z,21.52
2023-04-16T06:59:09.313Z,23.75
2023-04-16T07:01:39.257Z,22.05
2023-04-16T07:04:08.368Z,17.52
2023-04-16T07:06:37.149Z,17.02
2023-04-16T07:09:07.297Z,18.40
2023-04-16T07:11:37.977Z,14.07
2023-04-16T07:14:09.358Z,12.43
2023-04-16T07:16:41.753Z,15.20
2023-04-16T07:19:14.001Z,18.35
2023-04-16T07:21:44.730Z,14.00
2023-04-16T07:24:14.690Z,10.48
2023-04-16T07:26:44.381Z,16.23
2023-04-16T07:29:18.280Z,12.27
2023-04-16T07:31:47.923Z,10.38
2023-04-16T07:34:21.009Z,11.52
2023-04-16T07:36:50.277Z,12.98
2023-04-16T07:39:18.934Z,13.95
2023-04-16T07:41:48.194Z,13.07
2023-04-16T07:44:21.424Z,12.75
2023-04-16T07:46:58.552Z,11.15
2023-04-16T07:49:27.512Z,12.90
2023-04-16T07:51:57.107Z,15.45
2023-04-16T07:54:29.000Z,19.95
2023-04-16T07:57:02.104Z,10.02
2023-04-16T07:59:33.235Z,12.55
2023-04-16T08:02:02.514Z,13.32
2023-04-16T08:04:34.462Z,8.50
2023-04-16T08:07:03.176Z,10.75
2023-04-16T08:09:35.046Z,13.52
2023-04-16T08:12:05.130Z,12.65
2023-04-16T08:14:35.602Z,8.77
2023-04-16T08:17:04.428Z,10.27
2023-04-16T08:19:32.764Z,10.85
2023-04-16T08:22:01.858Z,7.63
2023-04-16T08:24:30.521Z,11.63
2023-04-16T08:27:08.154Z,8.13
2023-04-16T08:29:45.947Z,9.05
2023-04-16T08:32:15.558Z,9.43
2023-04-16T08:34:44.582Z,7.47
2023-04-16T08:37:13.327Z,10.07
2023-04-16T08:39:42.134Z,8.55
2023-04-16T08:42:23.719Z,10.88
2023-04-16T08:45:03.669Z,14.10
2023-04-16T08:47:35.651Z,9.77
2023-04-16T08:50:06.777Z,11.63
2023-04-16T08:52:39.096Z,10.13
2023-04-16T08:55:13.497Z,11.65
2023-04-16T08:57:50.248Z,10.00
2023-04-16T09:00:21.987Z,11.25
2023-04-16T09:02:51.742Z,11.00
2023-04-16T09:05:21.560Z,15.27
2023-04-16T09:07:50.809Z,12.60
2023-04-16T09:10:20.313Z,13.52
2023-04-16T09:12:48.918Z,12.63
2023-04-16T09:15:17.732Z,13.55
2023-04-16T09:17:48.001Z,12.63
2023-04-16T09:20:17.157Z,17.05
2023-04-16T09:22:46.667Z,14.57
2023-04-16T09:25:15.714Z,18.60
2023-04-16T09:27:45.155Z,22.77
2023-04-16T09:30:27.838Z,19.75
2023-04-16T09:33:16.920Z,18.35
2023-04-16T09:35:48.828Z,25.02
2023-04-16T09:38:18.211Z,29.92
2023-04-16T09:40:47.876Z,24.65
2023-04-16T09:43:19.022Z,32.53
2023-04-16T09:45:52.118Z,30.60
2023-04-16T09:48:35.422Z,31.90
2023-04-16T09:51:07.068Z,30.67
2023-04-16T09:53:36.063Z,33.10
2023-04-16T09:56:07.361Z,33.50
2023-04-16T09:58:38.517Z,32.72
2023-04-16T10:01:10.654Z,34.58
2023-04-16T10:03:44.426Z,31.10
2023-04-16T10:06:18.370Z,33.60
2023-04-16T10:08:50.279Z,44.83
2023-04-16T10:11:20.966Z,40.50
2023-04-16T10:13:52.705Z,39.08
2023-04-16T10:16:23.358Z,39.13
2023-04-16T10:18:54.622Z,40.13
2023-04-16T10:21:34.452Z,29.35
2023-04-16T10:24:04.266Z,39.58
2023-04-16T10:26:36.554Z,23.42
2023-04-16T10:29:08.656Z,27.67
2023-04-16T10:31:40.136Z,23.42
2023-04-16T10:34:14.187Z,26.50
2023-04-16T10:36:43.830Z,17.65
2023-04-16T10:39:17.060Z,14.70
2023-04-16T10:41:46.821Z,20.60
2023-04-16T10:44:18.425Z,21.45
2023-04-16T10:46:50.709Z,16.85
2023-04-16T10:49:25.408Z,19.27
2023-04-16T10:51:59.831Z,15.48
2023-04-16T10:54:30.891Z,22.35
2023-04-16T10:57:04.660Z,15.15
2023-04-16T10:59:35.554Z,17.17
2023-04-16T11:02:10.341Z,17.70
2023-04-16T11:04:44.103Z,13.10
2023-04-16T11:07:21.581Z,21.58
2023-04-16T11:09:57.810Z,15.10
2023-04-16T11:12:29.327Z,21.17
2023-04-16T11:15:02.659Z,18.80
2023-04-16T11:17:38.660Z,19.88
2023-04-16T11:20:19.079Z,15.82
2023-04-16T11:22:50.549Z,14.07
2023-04-16T11:25:22.655Z,16.95
2023-04-16T11:27:52.138Z,23.65
2023-04-16T11:30:30.898Z,21.75
2023-04-16T11:33:00.248Z,20.73
2023-04-16T11:35:30.772Z,31.27
2023-04-16T11:38:00.711Z,25.05
2023-04-16T11:40:32.743Z,25.02
2023-04-16T11:43:05.362Z,23.65
2023-04-16T11:45:35.374Z,32.65
2023-04-16T11:48:04.414Z,32.60
2023-04-16T11:50:36.766Z,36.95
2023-04-16T11:53:07.457Z,29.08
2023-04-16T11:55:45.992Z,42.50
2023-04-16T11:58:16.983Z,33.35
2023-04-16T12:00:50.054Z,37.25
2023-04-16T12:03:22.158Z,39.33
2023-04-16T12:05:52.329Z,35.70
2023-04-16T12:08:32.396Z,31.75
2023-04-16T12:11:01.313Z,41.60
2023-04-16T12:13:30.774Z,42.83
2023-04-16T12:15:59.602Z,33.08
2023-04-16T12:18:30.238Z,35.38
2023-04-16T12:21:01.829Z,34.22
2023-04-16T12:23:36.411Z,35.22
2023-04-16T12:26:10.996Z,39.53
2023-04-16T12:28:40.425Z,35.23
2023-04-16T12:31:11.107Z,38.45
2023-04-16T12:33:43.523Z,30.65
2023-04-16T12:36:23.153Z,31.80
2023-04-16T12:38:52.100Z,34.80
2023-04-16T12:41:22.359Z,32.15
2023-04-16T12:43:51.648Z,34.10
2023-04-16T12:46:20.559Z,29.70
2023-04-16T12:48:49.984Z,27.40
2023-04-16T12:51:18.768Z,29.90
2023-04-16T12:53:50.025Z,24.95
2023-04-16T12:56:18.971Z,26.40
2023-04-16T12:58:50.764Z,30.13
2023-04-16T13:01:20.304Z,26.67
2023-04-16T13:03:49.788Z,32.38
2023-04-16T13:06:19.736Z,28.80
2023-04-16T13:08:50.072Z,30.05
2023-04-16T13:11:19.192Z,28.75
2023-04-16T13:13:47.854Z,21.85
2023-04-16T13:16:16.534Z,24.88
2023-04-16T13:18:45.548Z,23.00
2023-04-16T13:21:14.302Z,22.70
2023-04-16T13:23:45.940Z,24.08
2023-04-16T13:26:16.454Z,25.13
2023-04-16T13:28:44.977Z,24.58
2023-04-16T13:31:14.277Z,29.27
2023-04-16T13:33:43.234Z,22.80
2023-04-16T13:36:12.049Z,30.33
2023-04-16T13:38:44.054Z,21.80
2023-04-16T13:41:13.092Z,28.33
2023-04-16T13:43:43.544Z,20.38
2023-04-16T13:46:12.214Z,22.35
2023-04-16T13:48:40.994Z,26.23
2023-04-16T13:51:09.934Z,25.67
2023-04-16T13:53:38.760Z,23.52
2023-04-16T13:56:08.097Z,24.67
2023-04-16T13:58:36.772Z,27.30
2023-04-16T14:01:07.295Z,23.23
2023-04-16T14:03:38.741Z,21.85
2023-04-16T14:06:07.919Z,19.88
2023-04-16T14:08:38.663Z,26.75
2023-04-16T14:11:11.652Z,25.90
2023-04-16T14:13:41.426Z,26.98
2023-04-16T14:16:11.832Z,23.17
2023-04-16T14:18:42.525Z,25.45
2023-04-16T14:21:11.269Z,22.48
2023-04-16T14:23:40.351Z,23.83
2023-04-16T14:26:09.542Z,25.70
2023-04-16T14:28:38.317Z,30.17
2023-04-16T14:31:06.978Z,29.08
2023-04-16T14:33:37.661Z,24.00
2023-04-16T14:36:07.486Z,24.40
2023-04-16T14:38:36.091Z,24.88
2023-04-16T14:41:05.035Z,32.33
2023-04-16T14:43:33.635Z,24.92
2023-04-16T14:46:03.618Z,23.98
2023-04-16T14:48:32.312Z,30.45
2023-04-16T14:51:02.227Z,28.98
2023-04-16T14:53:30.909Z,28.50
2023-04-16T14:55:59.350Z,28.55
2023-04-16T14:58:28.474Z,32.13
2023-04-16T15:00:57.033Z,29.85
2023-04-16T15:03:31.476Z,32.97
2023-04-16T15:06:02.498Z,36.63
2023-04-16T15:08:31.600Z,34.83
2023-04-16T15:11:00.106Z,28.00
2023-04-16T15:13:33.979Z,28.48
2023-04-16T15:16:02.940Z,30.98
2023-04-16T15:18:32.139Z,32.28
2023-04-16T15:21:02.201Z,37.35
2023-04-16T15:23:31.802Z,38.22
2023-04-16T15:26:00.898Z,31.40
2023-04-16T15:28:29.464Z,32.15
2023-04-16T15:30:59.721Z,29.98
2023-04-16T15:33:28.388Z,28.27
2023-04-16T15:35:57.102Z,27.88
2023-04-16T15:38:29.980Z,35.40
2023-04-16T15:41:01.316Z,32.22
2023-04-16T15:43:30.521Z,34.00
2023-04-16T15:45:59.273Z,39.72
2023-04-16T15:48:28.084Z,38.25
2023-04-16T15:50:58.311Z,39.45
2023-04-16T15:53:28.675Z,35.17
2023-04-16T15:55:57.198Z,28.73
2023-04-16T15:58:26.036Z,26.88
2023-04-16T16:00:54.389Z,28.20
2023-04-16T16:03:22.892Z,27.63
2023-04-16T16:05:51.158Z,26.58
2023-04-16T16:08:19.807Z,21.48
2023-04-16T16:10:52.806Z,28.15
2023-04-16T16:13:22.323Z,29.15
2023-04-16T16:15:53.529Z,22.98
2023-04-16T16:18:23.691Z,26.77
2023-04-16T16:20:58.475Z,27.58
2023-04-16T16:23:27.559Z,29.08
2023-04-16T16:25:57.933Z,31.85
2023-04-16T16:28:29.519Z,30.23
2023-04-16T16:30:59.642Z,35.80
2023-04-16T16:33:31.784Z,26.98
2023-04-16T16:36:00.756Z,27.40
2023-04-16T16:38:29.591Z,30.38
2023-04-16T16:40:59.685Z,27.90
2023-04-16T16:43:28.654Z,31.17
2023-04-16T16:46:06.309Z,26.77
2023-04-16T16:48:35.689Z,26.35
2023-04-16T16:51:06.256Z,25.60
2023-04-16T16:53:35.199Z,24.15
2023-04-16T16:56:08.958Z,29.02
2023-04-16T16:58:37.604Z,32.17
2023-04-16T17:01:06.918Z,37.72
2023-04-16T17:03:51.066Z,30.92
2023-04-16T17:06:29.149Z,35.92
2023-04-16T17:08:58.161Z,31.65
2023-04-16T17:11:31.464Z,30.83
2023-04-16T17:14:00.167Z,37.35
2023-04-16T17:16:28.672Z,34.28
2023-04-16T17:18:59.335Z,32.90
2023-04-16T17:21:28.016Z,28.75
2023-04-16T17:23:58.250Z,31.90
2023-04-16T17:26:27.390Z,38.05
2023-04-16T17:28:59.418Z,31.67
2023-04-16T17:31:29.609Z,34.20
2023-04-16T17:34:07.400Z,45.42
2023-04-16T17:37:02.208Z,34.60
2023-04-16T17:39:30.722Z,33.28
2023-04-16T17:42:04.263Z,45.00
2023-04-16T17:44:37.342Z,39.65
2023-04-16T17:47:06.732Z,45.17
2023-04-16T17:49:39.016Z,43.17
2023-04-16T17:52:08.171Z,39.70
2023-04-16T17:54:42.414Z,37.63
2023-04-16T17:57:10.891Z,37.38
2023-04-16T17:59:40.926Z,43.08
2023-04-16T18:02:09.936Z,37.42
2023-04-16T18:04:38.857Z,42.45
2023-04-16T18:07:10.439Z,35.13
2023-04-16T18:09:40.476Z,38.55
2023-04-16T18:12:09.524Z,36.85
2023-04-16T18:14:38.952Z,41.75
2023-04-16T18:17:10.037Z,39.10
2023-04-16T18:19:40.660Z,40.03
2023-04-16T18:22:09.571Z,47.38
2023-04-16T18:24:38.420Z,36.55
2023-04-16T18:27:07.341Z,46.72
2023-04-16T18:29:38.825Z,39.63
2023-04-16T18:32:12.323Z,36.22
2023-04-16T18:34:41.555Z,36.85
2023-04-16T18:37:10.492Z,33.88
2023-04-16T18:39:39.254Z,42.08
2023-04-16T18:42:08.118Z,40.10
2023-04-16T18:44:37.310Z,41.63
2023-04-16T18:47:06.548Z,38.08
2023-04-16T18:49:37.369Z,45.10
2023-04-16T18:52:06.175Z,42.03
2023-04-16T18:54:34.768Z,40.38
2023-04-16T18:57:03.762Z,36.55
2023-04-16T18:59:32.549Z,42.60
2023-04-16T19:02:01.293Z,44.38
2023-04-16T19:04:30.524Z,44.17
2023-04-16T19:07:01.449Z,43.90
2023-04-16T19:09:30.936Z,46.45
2023-04-16T19:11:59.724Z,54.90
2023-04-16T19:14:28.765Z,47.75
2023-04-16T19:16:58.035Z,47.35
2023-04-16T19:19:27.987Z,42.92
2023-04-16T19:21:56.741Z,51.22
2023-04-16T19:24:35.745Z,41.58
2023-04-16T19:27:04.672Z,45.53
2023-04-16T19:29:35.396Z,52.30
2023-04-16T19:32:04.632Z,48.00
2023-04-16T19:34:34.094Z,47.67
2023-04-16T19:37:03.817Z,44.22
2023-04-16T19:39:35.544Z,44.90
2023-04-16T19:42:04.655Z,50.22
2023-04-16T19:44:36.079Z,45.90
2023-04-16T19:47:06.227Z,44.28
2023-04-16T19:49:35.549Z,47.20
2023-04-16T19:52:04.407Z,44.60
2023-04-16T19:54:37.313Z,53.65
2023-04-16T19:57:06.301Z,53.20
2023-04-16T19:59:35.087Z,49.08
2023-04-16T20:02:04.045Z,44.90
2023-04-16T20:04:32.978Z,42.40
2023-04-16T20:07:01.786Z,42.67
2023-04-16T20:09:31.588Z,48.92
2023-04-16T20:12:03.748Z,46.95
2023-04-16T20:14:33.154Z,49.38
2023-04-16T20:17:02.039Z,50.47
2023-04-16T20:19:34.342Z,50.60
2023-04-16T20:22:03.360Z,54.10
2023-04-16T20:24:32.496Z,48.47
2023-04-16T20:27:03.285Z,51.10
2023-04-16T20:29:32.498Z,51.25
2023-04-16T20:32:01.312Z,47.42
2023-04-16T20:34:30.363Z,50.63
2023-04-16T20:36:59.300Z,44.05
2023-04-16T20:39:28.023Z,45.88
2023-04-16T20:41:57.924Z,47.55
2023-04-16T20:44:33.525Z,47.75
2023-04-16T20:47:02.348Z,45.17
2023-04-16T20:49:31.393Z,48.33
2023-04-16T20:52:00.309Z,48.97
2023-04-16T20:54:29.485Z,42.35
2023-04-16T20:56:58.483Z,49.90
2023-04-16T20:59:28.674Z,49.53
2023-04-16T21:01:57.462Z,44.65
2023-04-16T21:04:26.086Z,46.90
2023-04-16T21:06:55.173Z,42.90
2023-04-16T21:09:24.630Z,52.67
2023-04-16T21:11:53.081Z,54.47
2023-04-16T21:14:21.781Z,44.67
2023-04-16T21:16:52.068Z,46.58
2023-04-16T21:19:20.808Z,55.92
2023-04-16T21:21:49.531Z,43.78
2023-04-16T21:24:18.354Z,52.40
2023-04-16T21:26:46.735Z,56.65
2023-04-16T21:29:15.397Z,57.15
2023-04-16T21:31:43.898Z,51.03
2023-04-16T21:34:15.968Z,49.40
2023-04-16T21:36:44.538Z,52.25
2023-04-16T21:39:13.131Z,55.33
2023-04-16T21:41:41.675Z,55.30
2023-04-16T21:44:10.182Z,57.20
2023-04-16T21:46:39.113Z,50.53
2023-04-16T21:49:07.792Z,55.63
2023-04-16T21:51:40.388Z,51.78
2023-04-16T21:54:09.196Z,55.55
2023-04-16T21:56:37.678Z,52.90
2023-04-16T21:59:06.190Z,52.20
2023-04-16T22:01:34.600Z,56.17
2023-04-16T22:04:04.085Z,52.80
2023-04-16T22:06:32.780Z,47.53
2023-04-16T22:09:02.809Z,66.75
2023-04-16T22:11:31.255Z,49.47
2023-04-16T22:13:59.810Z,47.67
2023-04-16T22:16:28.546Z,49.78
2023-04-16T22:18:57.526Z,51.50
2023-04-16T22:21:26.629Z,45.92
2023-04-16T22:23:55.631Z,47.95
2023-04-16T22:26:25.881Z,49.45
2023-04-16T22:28:54.732Z,50.17
2023-04-16T22:31:23.235Z,44.28
2023-04-16T22:33:51.628Z,48.17
2023-04-16T22:36:20.302Z,49.25
2023-04-16T22:38:49.086Z,54.22
2023-04-16T22:41:17.902Z,47.05
2023-04-16T22:43:48.456Z,53.70
2023-04-16T22:46:20.030Z,50.88
2023-04-16T22:48:48.894Z,57.17
2023-04-16T22:51:18.121Z,52.75
2023-04-16T22:53:46.771Z,48.92
2023-04-16T22:56:15.498Z,53.72
2023-04-16T22:58:44.132Z,52.78
2023-04-16T23:01:14.238Z,47.85
2023-04-16T23:03:43.261Z,59.15
2023-04-16T23:06:11.968Z,52.88
2023-04-16T23:08:40.886Z,56.65
2023-04-16T23:11:09.593Z,56.50
2023-04-16T23:13:38.563Z,56.38
2023-04-16T23:16:08.379Z,57.17
2023-04-16T23:18:39.034Z,58.58
2023-04-16T23:21:07.782Z,56.13
2023-04-16T23:23:36.200Z,65.88
2023-04-16T23:26:05.145Z,60.30
2023-04-16T23:28:33.743Z,60.60
2023-04-16T23:31:03.284Z,65.78
2023-04-16T23:33:33.658Z,64.18
2023-04-16T23:36:03.881Z,57.05
2023-04-16T23:38:32.427Z,61.95
2023-04-16T23:41:01.084Z,57.92
2023-04-16T23:43:29.854Z,59.65
2023-04-16T23:45:58.584Z,59.35
2023-04-16T23:48:27.298Z,56.85
2023-04-16T23:50:56.029Z,62.45
2023-04-16T23:53:26.365Z,56.58
2023-04-16T23:55:54.967Z,55.92
2023-04-16T23:58:23.728Z,60.97
